createdAt,value
2022-10-04T00:04:45.494Z,10.25
2022-10-04T00:14:51.064Z,10.68
2022-10-04T00:25:24.405Z,11.45
2022-10-04T00:35:50.917Z,9.98
2022-10-04T00:45:58.210Z,11.82
2022-10-04T00:56:05.123Z,13.10
2022-10-04T01:06:12.295Z,12.32
2022-10-04T01:16:26.169Z,14.75
2022-10-04T01:26:40.127Z,14.85
2022-10-04T01:36:44.278Z,14.75
2022-10-04T01:46:50.349Z,15.63
2022-10-04T01:57:00.628Z,16.50
2022-10-04T02:07:12.293Z,17.63
2022-10-04T02:17:18.261Z,17.23
2022-10-04T02:27:27.563Z,19.50
2022-10-04T02:37:30.966Z,18.55
2022-10-04T02:47:44.865Z,17.88
2022-10-04T02:57:49.943Z,22.48
2022-10-04T03:07:54.528Z,21.40
2022-10-04T03:17:57.678Z,21.87
2022-10-04T03:28:03.717Z,23.25
2022-10-04T03:38:10.058Z,20.83
2022-10-04T03:48:18.550Z,22.00
2022-10-04T03:58:23.845Z,20.08
2022-10-04T04:08:33.697Z,21.45
2022-10-04T04:18:39.968Z,20.27
2022-10-04T04:28:49.142Z,18.23
2022-10-04T04:39:10.018Z,18.50
2022-10-04T04:49:17.868Z,20.83
2022-10-04T04:59:23.296Z,21.00
2022-10-04T05:09:31.505Z,18.20
2022-10-04T05:19:38.021Z,18.02
2022-10-04T05:29:55.804Z,15.77
2022-10-04T05:40:10.775Z,15.38
2022-10-04T05:50:20.703Z,14.27
2022-10-04T06:00:37.137Z,12.23
2022-10-04T06:10:53.144Z,12.18
2022-10-04T06:21:09.584Z,11.40
2022-10-04T06:31:38.035Z,10.68
2022-10-04T06:41:50.145Z,9.75
2022-10-04T06:52:25.603Z,9.50
2022-10-04T07:02:32.275Z,8.63
2022-10-04T07:12:42.476Z,9.32
2022-10-04T07:22:52.644Z,8.23
2022-10-04T07:32:58.520Z,9.52
2022-10-04T07:43:06.126Z,9.88
2022-10-04T07:53:18.118Z,8.40
2022-10-04T08:03:36.139Z,9.45
2022-10-04T08:13:52.398Z,8.90
2022-10-04T08:24:13.386Z,8.32
2022-10-04T08:34:38.308Z,8.15
2022-10-04T08:45:12.246Z,8.20
2022-10-04T08:55:48.332Z,8.57
2022-10-04T09:05:58.384Z,9.23
2022-10-04T09:16:16.355Z,9.43
2022-10-04T09:26:24.482Z,9.40
2022-10-04T09:37:09.174Z,9.32
2022-10-04T09:47:31.315Z,7.30
2022-10-04T09:57:49.397Z,7.07
2022-10-04T10:08:09.036Z,6.75
2022-10-04T10:18:22.041Z,7.22
2022-10-04T10:29:03.239Z,6.97
2022-10-04T10:39:38.090Z,6.95
2022-10-04T10:49:53.748Z,8.00
2022-10-04T11:00:37.220Z,6.03
2022-10-04T11:11:19.278Z,5.97
2022-10-04T11:22:09.892Z,4.88
2022-10-04T11:33:01.269Z,4.28
2022-10-04T11:43:47.521Z,4.47
2022-10-04T11:54:41.908Z,4.30
2022-10-04T12:05:19.519Z,3.60
2022-10-04T12:16:00.698Z,3.65
2022-10-04T12:26:24.920Z,3.88
2022-10-04T12:36:40.131Z,3.33
2022-10-04T12:46:58.120Z,3.53
2022-10-04T12:57:43.147Z,3.88
2022-10-04T13:08:00.704Z,3.78
2022-10-04T13:18:15.291Z,3.55
2022-10-04T13:28:26.674Z,3.40
2022-10-04T13:39:11.387Z,4.32
2022-10-04T13:59:44.462Z,4.10
2022-10-04T14:10:03.291Z,3.40
2022-10-04T14:20:51.885Z,3.70
2022-10-04T14:31:21.797Z,3.40
2022-10-04T14:42:15.380Z,4.10
2022-10-04T14:52:47.983Z,2.90
2022-10-04T15:03:17.872Z,3.47
2022-10-04T15:13:30.534Z,3.55
2022-10-04T15:23:56.915Z,3.30
2022-10-04T15:34:22.953Z,3.70
2022-10-04T15:44:57.140Z,3.95
2022-10-04T15:55:52.575Z,3.73
2022-10-04T16:06:03.145Z,4.05
2022-10-04T16:16:55.822Z,3.85
2022-10-04T16:27:20.524Z,3.67
2022-10-04T16:47:39.650Z,4.60
2022-10-04T16:57:44.544Z,4.90
2022-10-04T17:08:14.324Z,4.80
2022-10-04T17:18:31.384Z,6.13
2022-10-04T17:28:46.142Z,5.50
2022-10-04T17:49:20.679Z,5.68
2022-10-04T17:59:31.153Z,6.35
2022-10-04T18:09:41.729Z,5.65
2022-10-04T18:20:00.145Z,5.53
2022-10-04T18:30:14.371Z,6.40
2022-10-04T18:40:21.121Z,6.77
2022-10-04T18:50:33.072Z,6.57
2022-10-04T19:01:00.688Z,7.18
2022-10-04T19:11:09.407Z,7.95
2022-10-04T19:21:24.638Z,6.82
2022-10-04T19:31:35.460Z,7.57
2022-10-04T19:41:52.822Z,7.85
2022-10-04T19:52:14.389Z,7.25
2022-10-04T20:02:18.817Z,7.95
2022-10-04T20:12:37.012Z,7.60
2022-10-04T20:22:58.373Z,7.53
2022-10-04T20:33:02.166Z,7.20
2022-10-04T20:43:30.648Z,7.60
2022-10-04T20:53:34.338Z,7.82
2022-10-04T21:03:38.735Z,6.65
2022-10-04T21:13:53.416Z,6.45
2022-10-04T21:23:57.884Z,6.40
2022-10-04T21:34:00.884Z,6.72
2022-10-04T21:44:05.318Z,6.88
2022-10-04T21:54:08.649Z,6.70
2022-10-04T22:04:13.137Z,6.90
2022-10-04T22:14:16.161Z,7.03
2022-10-04T22:24:21.822Z,6.38
2022-10-04T22:34:24.867Z,6.45
2022-10-04T22:44:32.375Z,7.10
2022-10-04T22:54:37.010Z,6.13
2022-10-04T23:04:44.603Z,6.38
2022-10-04T23:14:47.578Z,6.10
2022-10-04T23:24:52.619Z,7.68
2022-10-04T23:34:57.085Z,8.25
2022-10-04T23:45:02.707Z,8.52
2022-10-04T23:55:15.451Z,8.95
